• Join FlightAware (Why Join?)
  • Login
  • US Flag 
12:28AM EDT


 

Airport Tracker/Info


-or-


 

Live Flight TrackerFlight Track Log ✈ RPA3228 ✈ 18-Sep-2013 ✈ KDCA - KBUF

Flight Track Log - Related Links

Times and Time Zones

All times are in EDT time to prevent confusion due to time zone crossing. See the RPA3228 flight status page for this flight to view local times or setup timezone preferences in your user account.

Time Position Orientation Groundspeed Altitude Reporting Facility
EDT Latitude Longitude Course Direction KTS MPH feet Rate Location/Type
10:31AM 38.8667 -77.0500 339° North 152 175 1,600  Level Potomac TRACON
10:32AM 38.9167 -77.1000 322° Northwest 231 266 4,200 3,000 Climbing Potomac TRACON
10:33AM 39.1777 -77.1649 337° Northwest  Level Estimated
10:33AM 38.9667 -77.1667 314° West 277 319 7,700  Level Potomac TRACON
10:34AM 39.2863 -77.2075 333° Northwest  Level Estimated
10:35AM 39.3949 -77.2503 339° North  Level Estimated
10:35AM 39.0564 -77.3772 299° West 315 362 14,400  Level Washington Center
10:36AM 39.5034 -77.2932 339° North  Level Estimated
10:36AM 39.1436 -77.4089 344° North 295 339 17,000  Level Washington Center
10:37AM 39.2331 -77.4111 359° North 308 354 17,700 1,800 Climbing Washington Center
10:39AM 39.4061 -77.4325 355° North 339 390 22,100 2,400 Climbing New York Center
10:40AM 39.5036 -77.4417 356° North 349 402 24,300 1,920 Climbing New York Center
10:41AM 39.6092 -77.4544 355° North 361 415 26,000 840 Climbing New York Center
10:42AM 39.7217 -77.4569 359° North 376 433 26,000  Level New York Center
10:43AM 39.8308 -77.4808 350° North 390 449 26,000  Level New York Center
10:44AM 39.9372 -77.5181 345° North 395 455 26,000  Level New York Center
10:45AM 40.0536 -77.5619 344° North 395 455 26,000  Level New York Center
10:46AM 40.1619 -77.5969 346° North 395 455 26,000  Level New York Center
10:47AM 40.2683 -77.6347 345° North 395 455 26,000  Level New York Center
10:48AM 40.3764 -77.6781 343° North 395 455 26,000  Level New York Center
10:49AM 40.4825 -77.7158 345° North 395 455 26,000  Level New York Center
10:51AM 40.6936 -77.7914 345° North 404 465 26,000  Level Cleveland Center
10:52AM 40.8006 -77.8325 344° North 404 465 26,000  Level Cleveland Center
10:53AM 40.9294 -77.8794 345° North 404 465 26,000  Level Cleveland Center
10:54AM 41.0369 -77.9203 344° North 406 467 26,000  Level Cleveland Center
10:55AM 41.1444 -77.9617 344° North 407 468 26,000  Level Cleveland Center
10:56AM 41.2528 -78.0008 345° North 408 470 26,000  Level Cleveland Center
10:57AM 41.3814 -78.0500 344° North 408 470 26,000  Level Cleveland Center
10:58AM 41.4900 -78.0892 345° North 408 470 26,000  Level Cleveland Center
10:59AM 41.5981 -78.1317 344° North 408 470 26,000 -360 Level Cleveland Center
11:00AM 41.7067 -78.1725 344° North 409 471 25,300 -1,440 Descending Cleveland Center
11:01AM 41.8147 -78.2150 344° North 408 470 23,100 -2,400 Descending Cleveland Center
11:02AM 41.9394 -78.2625 344° North 397 457 20,400 -2,460 Descending Cleveland Center
11:03AM 42.0400 -78.3028 343° North 384 442 18,100 -2,100 Descending Cleveland Center
11:04AM 42.1378 -78.3408 344° North 370 426 16,100 -2,100 Descending Cleveland Center
11:05AM 42.2339 -78.3767 345° North 361 415 13,800 -2,280 Descending Cleveland Center
11:06AM 42.3242 -78.4119 344° North 342 394 11,500 -1,380 Descending Cleveland Center
11:07AM 42.4325 -78.4544 344° North 339 390 11,000 -360 Descending Cleveland Center
11:08AM 42.5228 -78.4892 344° North 341 392 10,800 -780 Descending Cleveland Center
11:09AM 42.6031 -78.5117 348° North 293 337 9,400 -1,740 Descending Cleveland Center
11:10AM 42.6914 -78.5339 350° North 294 338 7,300 -2,100 Descending Cleveland Center
11:11AM 42.7756 -78.5500 352° North 294 338 5,200 -1,620 Descending Cleveland Center
11:12AM 42.8533 -78.5697 349° North 281 323 4,000 -1,080 Descending Cleveland Center
11:13AM 42.9161 -78.5556 North 228 262 3,000 -660 Descending Cleveland Center
11:14AM 42.9625 -78.5872 333° Northwest 215 247 2,700 -480 Descending Cleveland Center
11:15AM 42.9906 -78.6314 311° West 182 209 2,100 -660 Descending Cleveland Center
11:17AM 42.9667 -78.7000 245° Southwest 118 136 1,300 -660 Descending Buffalo TRACON